Decoded Metar for VMMC (MACAU in MACAU) (IATA:MFM) | Meteo·Mobile Aviation Weather
aviador You're here:

VMMC Decoded Metar

MACAU in MACAU
Report Time2018-12-16 09:30:00
UTC Time2018-12-16 10:01:35
Flight Rules vfr VFR
Wind360° at 13 kt
W.Decomp.*RWY 34: 12.1 kt HW 4.7 kt RCW
Visibility8000 m
Phenomena:N/A
Clouds:Few 015 Hf
Scattered 045 Hf
Expected CloudBase > 1,200 ft AGL from Temp-Dew spread
CeilingNone
Temp18°C (ISA +3)
Dew Point15°C (83% RH)
AAT15.0°C
QNH1020 hPa
Density Alt367 ft
Elevation20 ft
Report Wrong Elevation
Raw Report
VMMC 160930Z 36013KT 8000 FEW015 SCT045 18/15 Q1020 NOSIG=

Extra information for VMMC:More info

Metar Taf Metar & Taf Last 4 Metars F.Rules Stats Wind Profile Meteogram Temp Stats Airport Information Weather charts Add Link Nearby VenuesMetar ALERT Operation Metar Decoded Social comments